Map

Track Data

SID SEASON NUMBER BASIN SUBBASIN NAME ISO_TIME NATURE LAT LON WMO_WIND WMO_PRES WMO_AGENCY TRACK_TYPE DIST2LAND LANDFALL IFLAG USA_AGENCY USA_ATCF_ID USA_LAT USA_LON USA_RECORD USA_STATUS USA_WIND USA_PRES USA_SSHS USA_R34_NE USA_R34_SE USA_R34_SW USA_R34_NW USA_R50_NE USA_R50_SE USA_R50_SW USA_R50_NW USA_R64_NE USA_R64_SE USA_R64_SW USA_R64_NW USA_POCI USA_ROCI USA_RMW USA_EYE TOKYO_LAT TOKYO_LON TOKYO_GRADE TOKYO_WIND TOKYO_PRES TOKYO_R50_DIR TOKYO_R50_LONG TOKYO_R50_SHORT TOKYO_R30_DIR TOKYO_R30_LONG TOKYO_R30_SHORT TOKYO_LAND CMA_LAT CMA_LON CMA_CAT CMA_WIND CMA_PRES HKO_LAT HKO_LON HKO_CAT HKO_WIND HKO_PRES NEWDELHI_LAT NEWDELHI_LON NEWDELHI_GRADE NEWDELHI_WIND NEWDELHI_PRES NEWDELHI_CI NEWDELHI_DP NEWDELHI_POCI REUNION_LAT REUNION_LON REUNION_TYPE REUNION_WIND REUNION_PRES REUNION_TNUM REUNION_CI REUNION_RMW REUNION_R34_NE REUNION_R34_SE REUNION_R34_SW REUNION_R34_NW REUNION_R50_NE REUNION_R50_SE REUNION_R50_SW REUNION_R50_NW REUNION_R64_NE REUNION_R64_SE REUNION_R64_SW REUNION_R64_NW BOM_LAT BOM_LON BOM_TYPE BOM_WIND BOM_PRES BOM_TNUM BOM_CI BOM_RMW BOM_R34_NE BOM_R34_SE BOM_R34_SW BOM_R34_NW BOM_R50_NE BOM_R50_SE BOM_R50_SW BOM_R50_NW BOM_R64_NE BOM_R64_SE BOM_R64_SW BOM_R64_NW BOM_ROCI BOM_POCI BOM_EYE BOM_POS_METHOD BOM_PRES_METHOD NADI_LAT NADI_LON NADI_CAT NADI_WIND NADI_PRES WELLINGTON_LAT WELLINGTON_LON WELLINGTON_WIND WELLINGTON_PRES DS824_LAT DS824_LON DS824_STAGE DS824_WIND DS824_PRES TD9636_LAT TD9636_LON TD9636_STAGE TD9636_WIND TD9636_PRES TD9635_LAT TD9635_LON TD9635_WIND TD9635_PRES TD9635_ROCI NEUMANN_LAT NEUMANN_LON NEUMANN_CLASS NEUMANN_WIND NEUMANN_PRES MLC_LAT MLC_LON MLC_CLASS MLC_WIND MLC_PRES USA_GUST BOM_GUST BOM_GUST_PER REUNION_GUST REUNION_GUST_PER USA_SEAHGT USA_SEARAD_NE USA_SEARAD_SE USA_SEARAD_SW USA_SEARAD_NW STORM_SPEED STORM_DIR
2020173N34287 2020 32 NA NA DOLLY 2020-06-20 12:00:00 NR 34.3000 -72.9000 PROVISIONAL 289 289 O_____________ nhc_working_bt AL042020 34.3000 -72.9000 DB 20 1014 -3 14 79
2020173N34287 2020 32 NA NA DOLLY 2020-06-20 15:00:00 NR 34.4337 -72.0378 PROVISIONAL 353 353 P_____________ AL042020 34.4337 -72.0378 DB 20 1014 -3 14 78
2020173N34287 2020 32 NA NA DOLLY 2020-06-20 18:00:00 NR 34.6000 -71.2000 PROVISIONAL 412 412 O_____________ nhc_working_bt AL042020 34.6000 -71.2000 DB 20 1014 -3 14 74
2020173N34287 2020 32 NA NA DOLLY 2020-06-20 21:00:00 NR 34.8271 -70.4124 PROVISIONAL 474 474 P_____________ AL042020 34.8271 -70.4124 DB 20 1014 -3 13 68
2020173N34287 2020 32 NA NA DOLLY 2020-06-21 00:00:00 NR 35.1000 -69.7000 PROVISIONAL 529 529 O_____________ nhc_working_bt AL042020 35.1000 -69.7000 DB 20 1014 -3 12 64
2020173N34287 2020 32 NA NA DOLLY 2020-06-21 03:00:00 NR 35.3696 -69.0544 PROVISIONAL 578 578 P_____________ AL042020 35.3696 -69.0544 DB 20 1013 -3 11 58
2020173N34287 2020 32 NA NA DOLLY 2020-06-21 06:00:00 DS 35.7000 -68.5000 PROVISIONAL 630 630 O_____________ nhc_working_bt AL042020 35.7000 -68.5000 LO 20 1012 -3 11 50
2020173N34287 2020 32 NA NA DOLLY 2020-06-21 09:00:00 DS 36.0974 -67.9826 PROVISIONAL 644 603 P_____________ AL042020 36.0974 -67.9826 LO 22 1011 -3 12 39
2020173N34287 2020 32 NA NA DOLLY 2020-06-21 12:00:00 DS 36.6000 -67.6000 PROVISIONAL 603 548 O_____________ nhc_working_bt AL042020 36.6000 -67.6000 LO 25 1010 -3 1015 180 60 13 22
2020173N34287 2020 32 NA NA DOLLY 2020-06-21 15:00:00 DS 37.2647 -67.3822 PROVISIONAL 537 481 P_____________ AL042020 37.2647 -67.3822 LO 27 1009 -3 1015 180 52 13 10
2020173N34287 2020 32 NA NA DOLLY 2020-06-21 18:00:00 DS 37.9000 -67.3000 PROVISIONAL 481 442 O_____________ nhc_working_bt AL042020 37.9000 -67.3000 LO 30 1008 -3 1015 180 45 11 4
2020173N34287 2020 32 NA NA DOLLY 2020-06-21 21:00:00 DS 38.3474 -67.2919 PROVISIONAL 442 413 P_____________ AL042020 38.3474 -67.2919 LO 30 1009 -3 1015 180 52 7 0
2020173N34287 2020 32 NA NA DOLLY 2020-06-22 00:00:00 DS 38.6000 -67.3000 PROVISIONAL 413 404 O_____________ nhc_working_bt AL042020 38.6000 -67.3000 LO 30 1010 -3 1015 180 60 3 9
2020173N34287 2020 32 NA NA DOLLY 2020-06-22 03:00:00 DS 38.6675 -67.2150 PROVISIONAL 409 409 P_____________ AL042020 38.6675 -67.2150 LO 30 1010 -3 1015 180 60 2 90
2020173N34287 2020 32 NA NA DOLLY 2020-06-22 06:00:00 DS 38.6000 -67.1000 PROVISIONAL 423 423 O_____________ nhc_working_bt AL042020 38.6000 -67.1000 LO 30 1010 -3 1015 180 60 2 137
2020173N34287 2020 32 NA NA DOLLY 2020-06-22 09:00:00 DS 38.5223 -67.0377 PROVISIONAL 437 437 P_____________ AL042020 38.5223 -67.0377 LO 30 1009 -3 1015 180 60 3 141
2020173N34287 2020 32 NA NA DOLLY 2020-06-22 12:00:00 DS 38.4000 -66.9000 PROVISIONAL 451 451 O_____________ nhc_working_bt AL042020 38.4000 -66.9000 LO 30 1009 -3 1015 180 60 5 134
2020173N34287 2020 32 NA NA DOLLY 2020-06-22 15:00:00 DS 38.2048 -66.6164 PROVISIONAL 484 484 P_____________ AL042020 38.2048 -66.6164 LO 30 1009 -3 1015 180 60 6 119
2020173N34287 2020 32 NA NA DOLLY 2020-06-22 18:00:00 SS 38.1000 -66.2000 PROVISIONAL 514 514 O_____________ nhc_working_bt AL042020 38.1000 -66.2000 SD 30 1009 -2 1015 180 60 40 7 85
2020173N34287 2020 32 NA NA DOLLY 2020-06-22 21:00:00 SS 38.2641 -65.6655 PROVISIONAL 525 525 P_____________ AL042020 38.2400 -65.6880 SD 30 1009 -2 1015 180 60 10 65
2020173N34287 2020 32 NA NA DOLLY 2020-06-23 00:00:00 SS 38.5000 -65.1000 PROVISIONAL 547 535 O_____________ nhc_working_bt AL042020 38.5000 -65.1000 SD 30 1009 -2 1015 180 60 40 10 61
2020173N34287 2020 32 NA NA DOLLY 2020-06-23 03:00:00 SS 38.7495 -64.5507 PROVISIONAL 537 510 P_____________ AL042020 38.7498 -64.5075 SD 32 1007 -2 1014 180 70 10 61
2020173N34287 2020 32 NA NA DOLLY 2020-06-23 06:00:00 TS 39.0000 -63.9667 PROVISIONAL 512 501 O_____________ nhc_working_bt AL042020 39.0000 -63.9000 TS 35 1005 0 60 60 1013 180 80 40 11 65
2020173N34287 2020 32 NA NA DOLLY 2020-06-23 09:00:00 TS 39.2077 -63.2923 PROVISIONAL 506 501 P_____________ AL042020 39.2073 -63.2920 TS 37 1003 0 60 60 1012 165 60 11 69
2020173N34287 2020 32 NA NA DOLLY 2020-06-23 12:00:00 TS 39.4000 -62.6333 PROVISIONAL 508 501 O_____________ nhc_working_bt AL042020 39.4000 -62.7000 TS 40 1002 0 60 60 1011 150 40 50 10 67
2020173N34287 2020 32 NA NA DOLLY 2020-06-23 15:00:00 TS 39.5995 -62.0912 PROVISIONAL 508 503 P_____________ AL042020 39.5997 -62.1347 TS 40 1002 0 60 60 1010 125 40 9 63
2020173N34287 2020 32 NA NA DOLLY 2020-06-23 18:00:00 TS 39.8000 -61.6000 PROVISIONAL 512 512 O_____________ nhc_working_bt AL042020 39.8000 -61.6000 TS 40 1002 0 60 60 1010 100 40 50 12 90 90 8 65
2020173N34287 2020 32 NA NA DOLLY 2020-06-23 21:00:00 TS 39.9548 -61.0962 PROVISIONAL 521 521 P_____________ AL042020 39.9547 -61.0911 TS 37 1003 0 60 60 1010 100 40 9 62
2020173N34287 2020 32 NA NA DOLLY 2020-06-24 00:00:00 TS 40.2000 -60.6000 PROVISIONAL 527 502 O_____________ nhc_working_bt AL042020 40.2000 -60.6000 TS 35 1004 0 60 60 1010 100 40 45 10 47
2020173N34287 2020 32 NA NA DOLLY 2020-06-24 03:00:00 TS 40.6697 -60.1079 PROVISIONAL 495 460 P_____________ AL042020 40.6697 -60.1079 TS 32 1004 -1 1010 100 45 13 37
2020173N34287 2020 32 NA NA DOLLY 2020-06-24 06:00:00 TS 41.2000 -59.6000 PROVISIONAL 460 428 O_____________ nhc_working_bt AL042020 41.2000 -59.6000 TD 30 1005 -1 1010 100 50 40 12 39
2020173N34287 2020 32 NA NA DOLLY 2020-06-24 09:00:00 TS 41.6356 -59.0606 PROVISIONAL 431 408 P_____________ AL042020 41.6356 -59.0606 TD 30 1006 -1 1010 100 50 11 46
2020173N34287 2020 32 NA NA DOLLY 2020-06-24 12:00:00 DS 42.0000 -58.5000 PROVISIONAL 412 O_____________ nhc_working_bt AL042020 42.0000 -58.5000 LO 30 1007 -3 1010 100 50 40 11 49

About IBTrACS Database

This database is a web-friendly format of International Best Track Archive for Climate Stewardship (IBTrACS), a global best track data archive curated by NOAA dating back to 1842.

Updated: 2021-12-03